Terminal Aerodrome Forecast
Issued by NWS

Home | Current Version | Previous Version | Text Only | Print | Product List | Glossary On
Versions: 1 2 3 4 5 6 7 8 9 10 11 12 13 14 15 16 17 18 19 20 21
000
FTUS41 KBGM 292300
TAFRME
TAF
KRME 292339Z 3000/3024 12006KT P6SM BKN150
     FM300700 14008KT 4SM -SN OVC025 WS020/23040KT
      TEMPO 3007/3010 2SM -SHSN BR OVC018
     FM301200 24010KT P6SM -SHRASN OVC015
     FM301500 28014G24KT P6SM -SHRA OVC025=

USA.gov is the U.S. government's official web portal to all federal, state and local government web resources and services.